Licenciado Benito Juarez International Airport
MMMX : now visible

Airfield :











YOU CAN JOIN US ON...

 
LOGIN :

Register | Disclaimer

   EN    FR    IT 

 









Legend :    VFR   Marginal VFR   IFR   Intensive IFR   Very Intensive IFR
Visi :
Ceiling :
>= 8 km
>= 3000ft
5 to 8 km
1000 to 3000 ft
1500m to 5 km
500 to 1000 ft
800 to 1500m
200 to 500 ft
< 800m
< 200 ft
Symbols :   Thunderstorms  Fog  Heavy snow  Heavy precipitations  Wind > 20 kt






- Airport Elevation : 7316 ft
- IATA code : MEX


MMMX - Licenciado Benito Juarez International

CURRENT METAR :
  • 191755Z 08004KT 6SM SKC 25/M09 A3037 NOSIG RMK HZY CI

EXPIRED METARs :
  • 191721Z 33004KT 6SM SKC 22/M08 A3038 NOSIG RMK HZY CI
  • 191647Z 03002KT 6SM SKC 20/M07 A3040 NOSIG RMK HZY CI
  • 191623Z 06005KT 7SM FEW220 20/M07 A3040 NOSIG RMK 8/002 HZY
  • 191545Z 08004KT 7SM SKC 18/M06 A3040 NOSIG RMK HZY
  • 191509Z 11004KT 8SM SKC 16/M05 A3039 NOSIG RMK HZY

TAF TAF MMMX
Valid from the 19 at 18:00 until the 21 at 00:00 UTC


191633Z 1918/2024 03012KT P6SM SKC TX28/1920Z TN12/2012Z
BECMG 2001/2002 00000KT
FM201000 00000KT 2SM BR BKN010
TEMPO 2012/2015 1SM BR
FM201700 03010KT 4SM HZ SCT010



MET'MAP, your aeronautical weather chart ! - Copyright ORBIFLY December 2007 - Disclaimer

ORBIFLY MET'MAP TEAM :

Programming & Development : Alexandra Zaïnal
Concept & original design : Baudouin d'Aumeries
Assistance for programming : Marc-Olivier Méhu
Technical & hardware support : Manuel Goepfert

Contact : metmap@orbifly.com




SOURCES & CREDITS :

   NOAA       Earth
Advisory